KSGS

South St Paul Municipal-Richard E Fleming Field Airport

South St Paul, Minnesota, USA
METAR KSGS 231056Z AUTO 35012G17KT 10SM CLR M07/M10 A2992 RMK AO2 T10671103
Observed Flight Rules
Jan-23 @ 10:56 UTC (an hour ago) Visual Flight Rules
Wind Visibility Clouds
350° at 12 knots
 Gusting to 17 knots
10 miles
  • Clear skies
Temperatures Readings
Current -7°C / 19°F
Dewpoint -10°C / 14°F
Humidity 79%
Altimeter 29.92" Hg
Pressure 1013 hPa
Elevation 250
METAR KSGS 231056Z AUTO 35012G17KT 10SM CLR M07/M10 A2992 RMK AO2 T10671103
Observed Flight Rules
Jan-23 @ 10:56 UTC
(an hour ago)
VFR
Wind Visibility
350° at 12 knots
 Gusting to 17 knots
10 miles
Clouds
  • Clear skies
Temperature Dewpoint
-7°C / 19°F -10°C / 14°F
Humidity Altimeter Pressure
79% 29.92" Hg 1013 hPa